Euro Snow — VQGH9 — position and weather

sailwx.info

Track history (hours):
 
Tides and Currents Weather Stations Pressure Air Temp Water Temp Dewpoint Dewpoint Depression Visibility Wind Speed Wind Dir Waves Ship Positions

Euro Snow

Last reported at 2015-Mar-29 05:33 UTC. Time now 2015-Mar-29 07:26 UTC.
Position N 55°28' E 006°24'.

Length 133 m; draft 6.3 m.

Type: Cargo ship. MMSI: 235613000.

Date/timePositionNaut miles runAvg speedWind from/ knotsBaromVisibWave heightAir tempDewpointWater temp
2015-Mar-29 05:33N 55°28' E 006°24'1515.0
2015-Mar-29 04:33N 55°41' E 006°39'7814.5
2015-Mar-28 23:10N 56°46' E 007°55'1113.4
2015-Mar-28 22:19N 56°56' E 008°07'1113.1
2015-Mar-28 21:30N 57°05' E 008°17'1814.2
2015-Mar-28 20:15N 57°16' E 008°43'1315.4
2015-Mar-28 19:24N 57°22' E 009°04'4415.5
2015-Mar-28 16:33N 57°44' E 010°15'1515.2
2015-Mar-28 15:33N 57°49' E 010°43'1515.0
2015-Mar-28 14:33N 57°44' E 011°09'1515.0
2015-Mar-28 13:33N 57°38' E 011°36'9 8.6
2015-Mar-28 12:33N 57°41' E 011°51'0 0.0
2015-Mar-28 11:33N 57°41' E 011°51'0 0.0
2015-Mar-28 10:33N 57°41' E 011°51'0 0.0
2015-Mar-28 09:31N 57°41' E 011°51'0 0.0
2015-Mar-28 08:33N 57°41' E 011°51'0 0.0
2015-Mar-28 07:31N 57°41' E 011°51'0 0.0
2015-Mar-28 06:32N 57°41' E 011°51'0 0.0
2015-Mar-28 05:31N 57°41' E 011°51'0 0.0
2015-Mar-28 04:32N 57°41' E 011°51'0 0.0
2015-Mar-28 03:32N 57°41' E 011°51'0 0.0
2015-Mar-28 02:33N 57°41' E 011°51'0 0.0
2015-Mar-28 01:31N 57°41' E 011°51'0 0.0
2015-Mar-28 00:32N 57°41' E 011°51'0 0.0
2015-Mar-27 23:32N 57°41' E 011°51'0 0.0
2015-Mar-27 22:34N 57°41' E 011°51'0 0.0
2015-Mar-27 21:33N 57°41' E 011°51'0 0.0
2015-Mar-27 20:32N 57°41' E 011°51'0 0.0
2015-Mar-27 19:32N 57°41' E 011°51'0 0.0
2015-Mar-27 18:32N 57°41' E 011°51'0 0.0
2015-Mar-27 17:32N 57°41' E 011°51'8 8.0
2015-Mar-27 16:34N 57°36' E 011°40'3 2.5
2015-Mar-27 15:33N 57°34' E 011°41'0 0.1
2015-Mar-27 14:33N 57°34' E 011°41'0 0.0
2015-Mar-27 13:33N 57°34' E 011°41'0 0.0
2015-Mar-27 12:33N 57°34' E 011°41'0 0.0
2015-Mar-27 11:33N 57°34' E 011°41'0 0.1
2015-Mar-27 10:33N 57°34' E 011°41'0 0.0
2015-Mar-27 09:33N 57°34' E 011°41'0 0.0
2015-Mar-27 08:33N 57°34' E 011°41'0 0.0
2015-Mar-27 07:33N 57°34' E 011°41'0 0.0
2015-Mar-27 06:33N 57°34' E 011°41'0 0.0
2015-Mar-27 05:33N 57°34' E 011°41'0 0.0
2015-Mar-27 04:33N 57°34' E 011°41'0 0.0
2015-Mar-27 03:33N 57°34' E 011°41'0 0.0
2015-Mar-27 02:33N 57°34' E 011°41'0 0.1
2015-Mar-27 01:33N 57°34' E 011°41'0 0.0
2015-Mar-27 00:33N 57°34' E 011°41'0 0.0
2015-Mar-26 23:33N 57°34' E 011°41'0 0.1
2015-Mar-26 22:33N 57°34' E 011°41'0 0.0
2015-Mar-26 21:33N 57°34' E 011°41'0 0.0
2015-Mar-26 20:33N 57°34' E 011°41'0 0.0
2015-Mar-26 19:33N 57°34' E 011°41'4 4.4
2015-Mar-26 18:34N 57°30' E 011°39'1616.0
2015-Mar-26 17:33N 57°14' E 011°40'1615.8
2015-Mar-26 16:34N 56°58' E 011°46'1515.1
2015-Mar-26 15:33N 56°43' E 011°51'5714.4
2015-Mar-26 11:34N 56°04' E 010°34'1212.2
2015-Mar-26 10:34N 56°09' E 010°14'0 0.0
2015-Mar-26 09:33N 56°09' E 010°14'0 0.0
2015-Mar-26 08:31N 56°09' E 010°14'0 0.0
2015-Mar-26 07:31N 56°09' E 010°14'0 0.0
2015-Mar-26 06:32N 56°09' E 010°14'0 0.0
2015-Mar-26 05:32N 56°09' E 010°14'5310.6
2015-Mar-26 00:33N 56°35' E 011°38'1413.6
2015-Mar-25 23:33N 56°47' E 011°51'1413.9
2015-Mar-25 22:33N 57°00' E 011°43'1414.5
2015-Mar-25 21:33N 57°14' E 011°33'1414.4
2015-Mar-25 20:34N 57°27' E 011°24'1414.1
2015-Mar-25 19:33N 57°37' E 011°05'1413.9
2015-Mar-25 18:33N 57°46' E 010°46'9514.9
2015-Mar-25 12:11N 57°09' E 008°03'30815.7
2015-Mar-24 16:33N 54°55' W 000°13'1615.8
2015-Mar-24 15:34N 54°49' W 000°37'1615.7
2015-Mar-24 14:31N 54°42' W 001°03'6 3.0
2015-Mar-24 12:24N 54°36' W 001°09'0 0.0
2015-Mar-24 11:09N 54°36' W 001°09'0 0.0
2015-Mar-24 10:24N 54°36' W 001°09'0 0.0
2015-Mar-24 09:24N 54°36' W 001°09'0 0.0
2015-Mar-24 07:31N 54°36' W 001°09'0 0.0
2015-Mar-24 03:03N 54°37' W 001°09'5 9.1
2015-Mar-24 02:32N 54°39' W 001°02'1716.6
2015-Mar-24 01:31N 54°33' W 000°35'1717.3
2015-Mar-24 00:33N 54°22' W 000°15'1818.3
2015-Mar-23 23:34N 54°08' E 000°07'1817.9
2015-Mar-23 22:33N 53°55' E 000°27'4715.6
2015-Mar-23 19:34N 53°17' E 001°13'1515.2
2015-Mar-23 18:33N 53°04' E 001°26'1716.9
2015-Mar-23 17:33N 52°51' E 001°44'1817.6
2015-Mar-23 16:34N 52°34' E 001°54'1919.4
2015-Mar-23 15:33N 52°16' E 001°45'1918.8
2015-Mar-23 14:34N 51°58' E 001°35'1010.2
2015-Mar-23 13:33N 51°57' E 001°18'0 0.0
2015-Mar-23 12:31N 51°57' E 001°18'0 0.0
2015-Mar-23 11:32N 51°57' E 001°18'0 0.0
2015-Mar-23 10:33N 51°57' E 001°18'0 0.0
2015-Mar-23 09:32N 51°57' E 001°18'0 0.0
2015-Mar-23 08:33N 51°57' E 001°18'0 0.0
2015-Mar-23 07:33N 51°57' E 001°18'0 0.0
2015-Mar-23 06:33N 51°57' E 001°18'0 0.0
2015-Mar-23 05:29N 51°57' E 001°18'0 0.0
2015-Mar-23 04:32N 51°57' E 001°18'4 3.9
2015-Mar-23 03:33N 51°56' E 001°24'1313.1
2015-Mar-23 02:33N 51°51' E 001°44'1515.5
2015-Mar-23 01:33N 51°36' E 001°48'1817.7
2015-Mar-23 00:33N 51°19' E 001°41'1615.6
2015-Mar-22 23:34N 51°03' E 001°36'3415.5
2015-Mar-22 21:22N 50°35' E 001°06'1316.2
2015-Mar-22 20:33N 50°29' E 000°47'1615.9
2015-Mar-22 19:33N 50°25' E 000°23'  
2015-Mar-20 04:33N 39°12' W 009°42'1714.9
2015-Mar-20 03:23N 38°54' W 009°42'1315.1
2015-Mar-20 02:33N 38°42' W 009°41'1515.0
2015-Mar-20 01:34N 38°37' W 009°23'1211.8
2015-Mar-20 00:33N 38°42' W 009°09'3 2.7
2015-Mar-19 23:32N 38°43' W 009°06'0 0.0
2015-Mar-19 22:32N 38°43' W 009°06'0 0.0
2015-Mar-19 21:32N 38°43' W 009°06'0 0.0
2015-Mar-19 20:32N 38°43' W 009°06'0 0.0
2015-Mar-19 19:32N 38°43' W 009°07'0 0.0
2015-Mar-19 18:32N 38°43' W 009°06'0 0.0
2015-Mar-19 17:32N 38°43' W 009°06'0 0.0
2015-Mar-19 16:32N 38°43' W 009°07'0 0.0
2015-Mar-19 15:32N 38°43' W 009°06'8 8.6
2015-Mar-19 14:33N 38°41' W 009°17'1111.1
2015-Mar-19 13:33N 38°37' W 009°30'1211.7
2015-Mar-19 12:33N 38°42' W 009°43'1312.5
2015-Mar-19 11:32N 38°55' W 009°44'1312.7
2015-Mar-19 10:32N 39°08' W 009°44'  
Track history (hours):
 
Tides and Currents Weather Stations Pressure Air Temp Water Temp Dewpoint Dewpoint Depression Visibility Wind Speed Wind Dir Waves Ship Positions

Euro Snow

Last reported at 2015-Mar-29 05:33 UTC. Time now 2015-Mar-29 07:26 UTC.
Position N 55°28' E 006°24'.

Length 133 m; draft 6.3 m.

Type: Cargo ship. MMSI: 235613000.

Date/timePositionNaut miles runAvg speedWind from/ knotsBaromVisibWave heightAir tempDewpointWater temp
2015-Mar-29 05:33N 55°28' E 006°24'1515.0
2015-Mar-29 04:33N 55°41' E 006°39'7814.5
2015-Mar-28 23:10N 56°46' E 007°55'1113.4
2015-Mar-28 22:19N 56°56' E 008°07'1113.1
2015-Mar-28 21:30N 57°05' E 008°17'1814.2
2015-Mar-28 20:15N 57°16' E 008°43'1315.4
2015-Mar-28 19:24N 57°22' E 009°04'4415.5
2015-Mar-28 16:33N 57°44' E 010°15'1515.2
2015-Mar-28 15:33N 57°49' E 010°43'1515.0
2015-Mar-28 14:33N 57°44' E 011°09'1515.0
2015-Mar-28 13:33N 57°38' E 011°36'9 8.6
2015-Mar-28 12:33N 57°41' E 011°51'0 0.0
2015-Mar-28 11:33N 57°41' E 011°51'0 0.0
2015-Mar-28 10:33N 57°41' E 011°51'0 0.0
2015-Mar-28 09:31N 57°41' E 011°51'0 0.0
2015-Mar-28 08:33N 57°41' E 011°51'0 0.0
2015-Mar-28 07:31N 57°41' E 011°51'0 0.0
2015-Mar-28 06:32N 57°41' E 011°51'0 0.0
2015-Mar-28 05:31N 57°41' E 011°51'0 0.0
2015-Mar-28 04:32N 57°41' E 011°51'0 0.0
2015-Mar-28 03:32N 57°41' E 011°51'0 0.0
2015-Mar-28 02:33N 57°41' E 011°51'0 0.0
2015-Mar-28 01:31N 57°41' E 011°51'0 0.0
2015-Mar-28 00:32N 57°41' E 011°51'0 0.0
2015-Mar-27 23:32N 57°41' E 011°51'0 0.0
2015-Mar-27 22:34N 57°41' E 011°51'0 0.0
2015-Mar-27 21:33N 57°41' E 011°51'0 0.0
2015-Mar-27 20:32N 57°41' E 011°51'0 0.0
2015-Mar-27 19:32N 57°41' E 011°51'0 0.0
2015-Mar-27 18:32N 57°41' E 011°51'0 0.0
2015-Mar-27 17:32N 57°41' E 011°51'8 8.0
2015-Mar-27 16:34N 57°36' E 011°40'3 2.5
2015-Mar-27 15:33N 57°34' E 011°41'0 0.1
2015-Mar-27 14:33N 57°34' E 011°41'0 0.0
2015-Mar-27 13:33N 57°34' E 011°41'0 0.0
2015-Mar-27 12:33N 57°34' E 011°41'0 0.0
2015-Mar-27 11:33N 57°34' E 011°41'0 0.1
2015-Mar-27 10:33N 57°34' E 011°41'0 0.0
2015-Mar-27 09:33N 57°34' E 011°41'0 0.0
2015-Mar-27 08:33N 57°34' E 011°41'0 0.0
2015-Mar-27 07:33N 57°34' E 011°41'0 0.0
2015-Mar-27 06:33N 57°34' E 011°41'0 0.0
2015-Mar-27 05:33N 57°34' E 011°41'0 0.0
2015-Mar-27 04:33N 57°34' E 011°41'0 0.0
2015-Mar-27 03:33N 57°34' E 011°41'0 0.0
2015-Mar-27 02:33N 57°34' E 011°41'0 0.1
2015-Mar-27 01:33N 57°34' E 011°41'0 0.0
2015-Mar-27 00:33N 57°34' E 011°41'0 0.0
2015-Mar-26 23:33N 57°34' E 011°41'0 0.1
2015-Mar-26 22:33N 57°34' E 011°41'0 0.0
2015-Mar-26 21:33N 57°34' E 011°41'0 0.0
2015-Mar-26 20:33N 57°34' E 011°41'0 0.0
2015-Mar-26 19:33N 57°34' E 011°41'4 4.4
2015-Mar-26 18:34N 57°30' E 011°39'1616.0
2015-Mar-26 17:33N 57°14' E 011°40'1615.8
2015-Mar-26 16:34N 56°58' E 011°46'1515.1
2015-Mar-26 15:33N 56°43' E 011°51'5714.4
2015-Mar-26 11:34N 56°04' E 010°34'1212.2
2015-Mar-26 10:34N 56°09' E 010°14'0 0.0
2015-Mar-26 09:33N 56°09' E 010°14'0 0.0
2015-Mar-26 08:31N 56°09' E 010°14'0 0.0
2015-Mar-26 07:31N 56°09' E 010°14'0 0.0
2015-Mar-26 06:32N 56°09' E 010°14'0 0.0
2015-Mar-26 05:32N 56°09' E 010°14'5310.6
2015-Mar-26 00:33N 56°35' E 011°38'1413.6
2015-Mar-25 23:33N 56°47' E 011°51'1413.9
2015-Mar-25 22:33N 57°00' E 011°43'1414.5
2015-Mar-25 21:33N 57°14' E 011°33'1414.4
2015-Mar-25 20:34N 57°27' E 011°24'1414.1
2015-Mar-25 19:33N 57°37' E 011°05'1413.9
2015-Mar-25 18:33N 57°46' E 010°46'9514.9
2015-Mar-25 12:11N 57°09' E 008°03'30815.7
2015-Mar-24 16:33N 54°55' W 000°13'1615.8
2015-Mar-24 15:34N 54°49' W 000°37'1615.7
2015-Mar-24 14:31N 54°42' W 001°03'6 3.0
2015-Mar-24 12:24N 54°36' W 001°09'0 0.0
2015-Mar-24 11:09N 54°36' W 001°09'0 0.0
2015-Mar-24 10:24N 54°36' W 001°09'0 0.0
2015-Mar-24 09:24N 54°36' W 001°09'0 0.0
2015-Mar-24 07:31N 54°36' W 001°09'0 0.0
2015-Mar-24 03:03N 54°37' W 001°09'5 9.1
2015-Mar-24 02:32N 54°39' W 001°02'1716.6
2015-Mar-24 01:31N 54°33' W 000°35'1717.3
2015-Mar-24 00:33N 54°22' W 000°15'1818.3
2015-Mar-23 23:34N 54°08' E 000°07'1817.9
2015-Mar-23 22:33N 53°55' E 000°27'4715.6
2015-Mar-23 19:34N 53°17' E 001°13'1515.2
2015-Mar-23 18:33N 53°04' E 001°26'1716.9
2015-Mar-23 17:33N 52°51' E 001°44'1817.6
2015-Mar-23 16:34N 52°34' E 001°54'1919.4
2015-Mar-23 15:33N 52°16' E 001°45'1918.8
2015-Mar-23 14:34N 51°58' E 001°35'1010.2
2015-Mar-23 13:33N 51°57' E 001°18'0 0.0
2015-Mar-23 12:31N 51°57' E 001°18'0 0.0
2015-Mar-23 11:32N 51°57' E 001°18'0 0.0
2015-Mar-23 10:33N 51°57' E 001°18'0 0.0
2015-Mar-23 09:32N 51°57' E 001°18'0 0.0
2015-Mar-23 08:33N 51°57' E 001°18'0 0.0
2015-Mar-23 07:33N 51°57' E 001°18'0 0.0
2015-Mar-23 06:33N 51°57' E 001°18'0 0.0
2015-Mar-23 05:29N 51°57' E 001°18'0 0.0
2015-Mar-23 04:32N 51°57' E 001°18'4 3.9
2015-Mar-23 03:33N 51°56' E 001°24'1313.1
2015-Mar-23 02:33N 51°51' E 001°44'1515.5
2015-Mar-23 01:33N 51°36' E 001°48'1817.7
2015-Mar-23 00:33N 51°19' E 001°41'1615.6
2015-Mar-22 23:34N 51°03' E 001°36'3415.5
2015-Mar-22 21:22N 50°35' E 001°06'1316.2
2015-Mar-22 20:33N 50°29' E 000°47'1615.9
2015-Mar-22 19:33N 50°25' E 000°23'  
2015-Mar-20 04:33N 39°12' W 009°42'1714.9
2015-Mar-20 03:23N 38°54' W 009°42'1315.1
2015-Mar-20 02:33N 38°42' W 009°41'1515.0
2015-Mar-20 01:34N 38°37' W 009°23'1211.8
2015-Mar-20 00:33N 38°42' W 009°09'3 2.7
2015-Mar-19 23:32N 38°43' W 009°06'0 0.0
2015-Mar-19 22:32N 38°43' W 009°06'0 0.0
2015-Mar-19 21:32N 38°43' W 009°06'0 0.0
2015-Mar-19 20:32N 38°43' W 009°06'0 0.0
2015-Mar-19 19:32N 38°43' W 009°07'0 0.0
2015-Mar-19 18:32N 38°43' W 009°06'0 0.0
2015-Mar-19 17:32N 38°43' W 009°06'0 0.0
2015-Mar-19 16:32N 38°43' W 009°07'0 0.0
2015-Mar-19 15:32N 38°43' W 009°06'8 8.6
2015-Mar-19 14:33N 38°41' W 009°17'1111.1
2015-Mar-19 13:33N 38°37' W 009°30'1211.7
2015-Mar-19 12:33N 38°42' W 009°43'1312.5
2015-Mar-19 11:32N 38°55' W 009°44'1312.7
2015-Mar-19 10:32N 39°08' W 009°44'  

Dump ship's entire track history